createdAt,value
2018-04-22T00:00:15.684Z,22.26
2018-04-22T00:00:47.715Z,22.14
2018-04-22T00:01:19.763Z,22.2
2018-04-22T00:01:51.787Z,22.08
2018-04-22T00:02:23.835Z,22.12
2018-04-22T00:02:55.950Z,22.11
2018-04-22T00:03:27.984Z,22.12
2018-04-22T00:04:00.019Z,22.12
2018-04-22T00:04:32.061Z,22.15
2018-04-22T00:05:04.162Z,22.12
2018-04-22T00:05:36.192Z,22.07
2018-04-22T00:06:08.184Z,22.09
2018-04-22T00:06:41.065Z,22.12
2018-04-22T00:07:13.097Z,22.14
2018-04-22T00:07:45.100Z,22.11
2018-04-22T00:08:17.126Z,22.05
2018-04-22T00:08:49.160Z,22.07
2018-04-22T00:09:21.172Z,22.08
2018-04-22T00:09:53.223Z,22.11
2018-04-22T00:10:25.199Z,22.09
2018-04-22T00:10:57.183Z,22.08
2018-04-22T00:11:29.233Z,22.08
2018-04-22T00:12:01.262Z,22.07
2018-04-22T00:12:33.315Z,22.05
2018-04-22T00:13:05.341Z,22.04
2018-04-22T00:13:37.410Z,22.05
2018-04-22T00:14:09.553Z,22.02
2018-04-22T00:14:41.472Z,22.07
2018-04-22T00:15:13.553Z,22.11
2018-04-22T00:15:45.579Z,21.99
2018-04-22T00:16:17.697Z,21.96
2018-04-22T00:16:49.732Z,22.02
2018-04-22T00:17:21.745Z,21.96
2018-04-22T00:17:53.774Z,22.02
2018-04-22T00:18:25.841Z,22
2018-04-22T00:18:57.852Z,22.04
2018-04-22T00:19:29.914Z,22
2018-04-22T00:20:01.958Z,21.97
2018-04-22T00:20:34.021Z,21.97
2018-04-22T00:21:06.064Z,21.9
2018-04-22T00:21:38.076Z,21.94
2018-04-22T00:22:10.084Z,21.94
2018-04-22T00:22:42.146Z,22
2018-04-22T00:23:14.141Z,21.96
2018-04-22T00:23:46.174Z,21.9
2018-04-22T00:24:18.232Z,21.9
2018-04-22T00:24:50.265Z,21.94
2018-04-22T00:25:22.319Z,21.92
2018-04-22T00:25:54.322Z,21.93
2018-04-22T00:26:26.347Z,21.78
2018-04-22T00:26:58.384Z,21.92
2018-04-22T00:27:30.421Z,21.92
2018-04-22T00:28:02.444Z,21.93
2018-04-22T00:28:34.464Z,21.89
2018-04-22T00:29:06.525Z,21.93
2018-04-22T00:29:38.566Z,21.89
2018-04-22T00:30:10.604Z,21.9
2018-04-22T00:30:42.637Z,21.92
2018-04-22T00:31:14.704Z,21.77
2018-04-22T00:31:46.755Z,21.83
2018-04-22T00:32:18.789Z,21.86
2018-04-22T00:32:50.774Z,21.86
2018-04-22T00:33:22.767Z,21.8
2018-04-22T00:33:54.818Z,21.74
2018-04-22T00:34:26.828Z,21.8
2018-04-22T00:34:58.850Z,21.78
2018-04-22T00:35:30.841Z,21.8
2018-04-22T00:36:02.921Z,21.86
2018-04-22T00:36:34.942Z,21.86
2018-04-22T00:37:07.011Z,21.86
2018-04-22T00:37:39.121Z,21.82
2018-04-22T00:38:11.201Z,21.8
2018-04-22T00:38:43.232Z,21.83
2018-04-22T00:39:15.288Z,21.82
2018-04-22T00:39:47.334Z,21.83
2018-04-22T00:40:19.418Z,21.86
2018-04-22T00:40:51.427Z,21.83
2018-04-22T00:41:23.545Z,21.76
2018-04-22T00:41:55.626Z,21.76
2018-04-22T00:42:27.630Z,21.76
2018-04-22T00:42:59.644Z,21.7
2018-04-22T00:43:31.696Z,21.78
2018-04-22T00:44:03.748Z,21.78
2018-04-22T00:44:35.778Z,21.73
2018-04-22T00:45:07.904Z,21.73
2018-04-22T00:45:40.595Z,21.76
2018-04-22T00:46:12.669Z,21.74
2018-04-22T00:46:45.505Z,21.76
2018-04-22T00:47:17.475Z,21.76
2018-04-22T00:47:50.204Z,21.73
2018-04-22T00:48:22.221Z,21.71
2018-04-22T00:48:54.206Z,21.7
2018-04-22T00:49:26.301Z,21.7
2018-04-22T00:49:58.312Z,21.77
2018-04-22T00:50:30.364Z,21.76
2018-04-22T00:51:02.381Z,21.67
2018-04-22T00:51:34.379Z,21.68
2018-04-22T00:52:06.389Z,21.67
2018-04-22T00:52:38.421Z,21.66
2018-04-22T00:53:10.420Z,21.62
2018-04-22T00:53:42.431Z,21.67
2018-04-22T00:54:14.485Z,21.66
2018-04-22T00:54:46.553Z,21.66
2018-04-22T00:55:18.605Z,21.61
2018-04-22T00:55:50.590Z,21.62
2018-04-22T00:56:22.649Z,21.62
2018-04-22T00:56:54.653Z,21.64
2018-04-22T00:57:26.687Z,21.62
2018-04-22T00:57:58.745Z,21.59
2018-04-22T00:58:30.790Z,21.62
2018-04-22T00:59:02.838Z,21.67
2018-04-22T00:59:34.898Z,21.66
2018-04-22T01:00:06.921Z,21.66
2018-04-22T01:00:38.974Z,21.67
2018-04-22T01:01:10.978Z,21.66
2018-04-22T01:01:43.017Z,21.66
2018-04-22T01:02:15.064Z,21.61
2018-04-22T01:02:47.086Z,21.71
2018-04-22T01:03:19.097Z,21.64
2018-04-22T01:03:51.262Z,21.61
2018-04-22T01:04:23.384Z,21.59
2018-04-22T01:04:55.443Z,21.52
2018-04-22T01:05:27.481Z,21.55
2018-04-22T01:05:59.500Z,21.62
2018-04-22T01:06:31.532Z,21.59
2018-04-22T01:07:03.536Z,21.58
2018-04-22T01:07:35.583Z,21.58
2018-04-22T01:08:07.604Z,21.56
2018-04-22T01:08:39.625Z,21.62
2018-04-22T01:09:11.671Z,21.55
2018-04-22T01:09:43.724Z,21.55
2018-04-22T01:10:15.738Z,21.55
2018-04-22T01:10:47.923Z,21.59
2018-04-22T01:11:20.006Z,21.52
2018-04-22T01:11:52.025Z,21.46
2018-04-22T01:12:24.057Z,21.51
2018-04-22T01:12:56.106Z,21.52
2018-04-22T01:13:28.203Z,21.58
2018-04-22T01:14:00.227Z,21.56
2018-04-22T01:14:32.273Z,21.52
2018-04-22T01:15:04.312Z,21.48
2018-04-22T01:15:36.438Z,21.55
2018-04-22T01:16:08.437Z,21.45
2018-04-22T01:16:40.453Z,21.48
2018-04-22T01:17:12.497Z,21.46
2018-04-22T01:17:44.500Z,21.52
2018-04-22T01:18:16.544Z,21.45
2018-04-22T01:18:48.580Z,21.48
2018-04-22T01:19:20.624Z,21.45
2018-04-22T01:19:52.652Z,21.55
2018-04-22T01:20:24.681Z,21.49
2018-04-22T01:20:56.711Z,21.56
2018-04-22T01:21:28.909Z,21.49
2018-04-22T01:22:00.926Z,21.51
2018-04-22T01:22:32.954Z,21.45
2018-04-22T01:23:04.999Z,21.49
2018-04-22T01:23:37.023Z,21.51
2018-04-22T01:24:09.079Z,21.51
2018-04-22T01:24:41.103Z,21.49
2018-04-22T01:25:13.843Z,21.45
2018-04-22T01:25:45.890Z,21.46
2018-04-22T01:26:17.918Z,21.4
2018-04-22T01:26:49.918Z,21.43
2018-04-22T01:27:21.882Z,21.41
2018-04-22T01:27:53.924Z,21.43
2018-04-22T01:28:25.922Z,21.38
2018-04-22T01:28:57.931Z,21.43
2018-04-22T01:29:29.946Z,21.45
2018-04-22T01:30:01.940Z,21.38
2018-04-22T01:30:33.975Z,21.36
2018-04-22T01:31:06.043Z,21.36
2018-04-22T01:31:38.201Z,21.4
2018-04-22T01:32:10.235Z,21.4
2018-04-22T01:32:42.225Z,21.37
2018-04-22T01:33:14.276Z,21.33
2018-04-22T01:33:46.349Z,21.38
2018-04-22T01:34:18.356Z,21.36
2018-04-22T01:34:50.404Z,21.36
2018-04-22T01:35:22.468Z,21.33
2018-04-22T01:35:54.523Z,21.36
2018-04-22T01:36:26.559Z,21.34
2018-04-22T01:36:58.605Z,21.4
2018-04-22T01:37:30.608Z,21.4
2018-04-22T01:38:02.655Z,21.37
2018-04-22T01:38:34.676Z,21.31
2018-04-22T01:39:06.746Z,21.37
2018-04-22T01:39:38.869Z,21.31
2018-04-22T01:40:10.878Z,21.37
2018-04-22T01:40:42.921Z,21.31
2018-04-22T01:41:14.979Z,21.31
2018-04-22T01:41:47.043Z,21.36
2018-04-22T01:42:19.041Z,21.3
2018-04-22T01:42:51.075Z,21.34
2018-04-22T01:43:23.146Z,21.33
2018-04-22T01:43:55.161Z,21.27
2018-04-22T01:44:27.211Z,21.33
2018-04-22T01:44:59.252Z,21.28
2018-04-22T01:45:31.395Z,21.36
2018-04-22T01:46:04.362Z,21.27
2018-04-22T01:46:37.133Z,21.27
2018-04-22T01:47:09.140Z,21.33
2018-04-22T01:47:41.174Z,21.27
2018-04-22T01:48:13.212Z,21.34
2018-04-22T01:48:45.206Z,21.31
2018-04-22T01:49:17.310Z,21.23
2018-04-22T01:49:49.336Z,21.25
2018-04-22T01:50:21.382Z,21.28
2018-04-22T01:50:53.401Z,21.34
2018-04-22T01:51:25.452Z,21.28
2018-04-22T01:51:57.482Z,21.22
2018-04-22T01:52:29.532Z,21.27
2018-04-22T01:53:01.546Z,21.23
2018-04-22T01:53:33.567Z,21.25
2018-04-22T01:54:05.607Z,21.28
2018-04-22T01:54:37.619Z,21.27
2018-04-22T01:55:09.709Z,21.23
2018-04-22T01:55:41.732Z,21.23
2018-04-22T01:56:13.719Z,21.28
2018-04-22T01:56:45.876Z,21.21
2018-04-22T01:57:17.918Z,21.27
2018-04-22T01:57:49.933Z,21.27
2018-04-22T01:58:21.977Z,21.23
2018-04-22T01:58:54.009Z,21.3
2018-04-22T01:59:26.062Z,21.22
2018-04-22T01:59:58.208Z,21.23
2018-04-22T02:00:30.268Z,21.21
2018-04-22T02:01:02.299Z,21.18
2018-04-22T02:01:34.339Z,21.16
2018-04-22T02:02:06.333Z,21.22
2018-04-22T02:02:38.344Z,21.15
2018-04-22T02:03:10.367Z,21.25
2018-04-22T02:03:42.373Z,21.18
2018-04-22T02:04:14.407Z,21.15
2018-04-22T02:04:46.423Z,21.18
2018-04-22T02:05:18.461Z,21.15
2018-04-22T02:05:50.484Z,21.22
2018-04-22T02:06:22.495Z,21.22
2018-04-22T02:06:54.540Z,21.22
2018-04-22T02:07:26.560Z,21.23
2018-04-22T02:07:58.590Z,21.16
2018-04-22T02:08:30.622Z,21.09
2018-04-22T02:09:02.745Z,21.16
2018-04-22T02:09:34.815Z,21.15
2018-04-22T02:10:06.961Z,21.18
2018-04-22T02:10:39.003Z,21.12
2018-04-22T02:11:11.006Z,21.18
2018-04-22T02:11:43.114Z,21.15
2018-04-22T02:12:15.171Z,21.16
2018-04-22T02:12:47.187Z,21.15
2018-04-22T02:13:19.249Z,21.12
2018-04-22T02:13:51.305Z,21.13
2018-04-22T02:14:23.336Z,21.09
2018-04-22T02:14:55.382Z,21.08
2018-04-22T02:15:27.428Z,21.11
2018-04-22T02:15:59.479Z,21.11
2018-04-22T02:16:31.516Z,21.09
2018-04-22T02:17:03.554Z,21.08
2018-04-22T02:17:35.580Z,21.06
2018-04-22T02:18:07.586Z,21.04
2018-04-22T02:18:39.676Z,21
2018-04-22T02:19:11.790Z,21.03
2018-04-22T02:19:43.828Z,21.08
2018-04-22T02:20:15.811Z,21.08
2018-04-22T02:20:47.849Z,21.04
2018-04-22T02:21:19.891Z,21.08
2018-04-22T02:21:51.943Z,21.04
2018-04-22T02:22:23.989Z,21.04
2018-04-22T02:22:56.035Z,21.08
2018-04-22T02:23:28.065Z,21.08
2018-04-22T02:24:00.096Z,21.06
2018-04-22T02:24:32.170Z,21.04
2018-04-22T02:25:04.199Z,21.01
2018-04-22T02:25:36.257Z,21.16
2018-04-22T02:26:09.209Z,21
2018-04-22T02:26:41.238Z,21.03
2018-04-22T02:27:13.305Z,21.01
2018-04-22T02:27:45.416Z,20.96
2018-04-22T02:28:17.473Z,21.11
2018-04-22T02:28:49.516Z,21.04
2018-04-22T02:29:21.561Z,21.04
2018-04-22T02:29:53.709Z,21.13
2018-04-22T02:30:25.747Z,21.06
2018-04-22T02:30:57.802Z,21.01
2018-04-22T02:31:29.813Z,21.01
2018-04-22T02:32:01.838Z,21.04
2018-04-22T02:32:33.850Z,21.01
2018-04-22T02:33:05.902Z,21.08
2018-04-22T02:33:37.954Z,21
2018-04-22T02:34:09.991Z,21.01
2018-04-22T02:34:42.058Z,21.01
2018-04-22T02:35:14.097Z,21
2018-04-22T02:35:46.172Z,20.88
2018-04-22T02:36:18.197Z,20.97
2018-04-22T02:36:50.239Z,21.03
2018-04-22T02:37:22.284Z,21.06
2018-04-22T02:37:54.368Z,20.96
2018-04-22T02:38:26.415Z,21.03
2018-04-22T02:38:58.449Z,20.85
2018-04-22T02:39:30.514Z,20.93
2018-04-22T02:40:03.048Z,20.97
2018-04-22T02:40:35.098Z,20.96
2018-04-22T02:41:07.129Z,20.96
2018-04-22T02:41:39.128Z,20.94
2018-04-22T02:42:11.227Z,20.96
2018-04-22T02:42:43.279Z,20.96
2018-04-22T02:43:15.316Z,20.94
2018-04-22T02:43:47.345Z,20.9
2018-04-22T02:44:19.399Z,21.01
2018-04-22T02:44:51.457Z,20.97
2018-04-22T02:45:23.483Z,20.93
2018-04-22T02:45:55.521Z,20.97
2018-04-22T02:46:27.573Z,20.98
2018-04-22T02:46:59.702Z,21.03
2018-04-22T02:47:31.753Z,20.94
2018-04-22T02:48:03.769Z,20.94
2018-04-22T02:48:35.778Z,20.98
2018-04-22T02:49:07.842Z,20.98
2018-04-22T02:49:39.897Z,20.83
2018-04-22T02:50:11.891Z,20.9
2018-04-22T02:50:43.954Z,20.91
2018-04-22T02:51:15.966Z,20.96
2018-04-22T02:51:48.006Z,20.9
2018-04-22T02:52:20.116Z,20.91
2018-04-22T02:52:52.173Z,20.91
2018-04-22T02:53:24.219Z,20.88
2018-04-22T02:53:56.271Z,20.96
2018-04-22T02:54:28.337Z,20.9
2018-04-22T02:55:00.387Z,20.93
2018-04-22T02:55:32.400Z,20.96
2018-04-22T02:56:04.426Z,20.93
2018-04-22T02:56:36.505Z,20.86
2018-04-22T02:57:08.519Z,20.94
2018-04-22T02:57:40.550Z,20.91
2018-04-22T02:58:12.592Z,20.94
2018-04-22T02:58:44.737Z,20.93
2018-04-22T02:59:16.822Z,20.91
2018-04-22T02:59:48.847Z,20.9
2018-04-22T03:00:20.875Z,20.83
2018-04-22T03:00:52.893Z,20.93
2018-04-22T03:01:25.010Z,20.94
2018-04-22T03:01:57.063Z,20.88
2018-04-22T03:02:29.074Z,20.82
2018-04-22T03:03:01.135Z,20.79
2018-04-22T03:03:33.126Z,20.82
2018-04-22T03:04:05.139Z,20.93
2018-04-22T03:04:37.205Z,20.91
2018-04-22T03:05:09.284Z,20.79
2018-04-22T03:05:41.337Z,20.79
2018-04-22T03:06:13.363Z,20.82
2018-04-22T03:06:45.565Z,20.79
2018-04-22T03:07:17.625Z,20.83
2018-04-22T03:07:49.674Z,20.81
2018-04-22T03:08:21.738Z,20.82
2018-04-22T03:08:53.748Z,20.81
2018-04-22T03:09:25.776Z,20.86
2018-04-22T03:09:57.822Z,20.86
2018-04-22T03:10:29.991Z,20.71
2018-04-22T03:11:02.033Z,20.81
2018-04-22T03:11:34.069Z,20.79
2018-04-22T03:12:06.111Z,20.79
2018-04-22T03:12:38.201Z,20.81
2018-04-22T03:13:10.222Z,20.82
2018-04-22T03:13:42.288Z,20.86
2018-04-22T03:14:14.293Z,20.74
2018-04-22T03:14:46.320Z,20.78
2018-04-22T03:15:18.357Z,20.79
2018-04-22T03:15:50.350Z,20.81
2018-04-22T03:16:22.458Z,20.78
2018-04-22T03:16:54.505Z,20.81
2018-04-22T03:17:26.504Z,20.81
2018-04-22T03:17:58.556Z,20.72
2018-04-22T03:18:30.644Z,20.81
2018-04-22T03:19:02.668Z,20.71
2018-04-22T03:19:34.687Z,20.68
2018-04-22T03:20:06.710Z,20.82
2018-04-22T03:20:38.741Z,20.67
2018-04-22T03:21:10.766Z,20.79
2018-04-22T03:21:42.819Z,20.79
2018-04-22T03:22:14.873Z,20.74
2018-04-22T03:22:46.906Z,20.74
2018-04-22T03:23:18.920Z,20.75
2018-04-22T03:23:51.012Z,20.75
2018-04-22T03:24:23.068Z,20.76
2018-04-22T03:24:55.123Z,20.68
2018-04-22T03:25:27.125Z,20.68
2018-04-22T03:25:59.213Z,20.68
2018-04-22T03:26:31.234Z,20.66
2018-04-22T03:27:03.262Z,20.72
2018-04-22T03:27:35.286Z,20.72
2018-04-22T03:28:07.321Z,20.74
2018-04-22T03:28:39.359Z,20.68
2018-04-22T03:29:11.467Z,20.71
2018-04-22T03:29:43.473Z,20.72
2018-04-22T03:30:15.523Z,20.72
2018-04-22T03:30:47.535Z,20.72
2018-04-22T03:31:19.592Z,20.67
2018-04-22T03:31:51.645Z,20.71
2018-04-22T03:32:23.725Z,20.68
2018-04-22T03:32:55.751Z,20.67
2018-04-22T03:33:27.760Z,20.61
2018-04-22T03:33:59.779Z,20.71
2018-04-22T03:34:31.869Z,20.68
2018-04-22T03:35:03.921Z,20.75
2018-04-22T03:35:35.965Z,20.63
2018-04-22T03:36:08.101Z,20.66
2018-04-22T03:36:40.184Z,20.61
2018-04-22T03:37:12.212Z,20.63
2018-04-22T03:37:44.235Z,20.68
2018-04-22T03:38:16.272Z,20.64
2018-04-22T03:38:48.420Z,20.63
2018-04-22T03:39:20.453Z,20.68
2018-04-22T03:39:52.470Z,20.61
2018-04-22T03:40:24.490Z,20.6
2018-04-22T03:40:56.497Z,20.6
2018-04-22T03:41:28.540Z,20.6
2018-04-22T03:42:00.567Z,20.6
2018-04-22T03:42:32.583Z,20.56
2018-04-22T03:43:04.745Z,20.56
2018-04-22T03:43:36.764Z,20.57
2018-04-22T03:44:08.807Z,20.6
2018-04-22T03:44:40.859Z,20.56
2018-04-22T03:45:12.901Z,20.53
2018-04-22T03:45:44.871Z,20.57
2018-04-22T03:46:16.895Z,20.6
2018-04-22T03:46:49.008Z,20.54
2018-04-22T03:47:21.046Z,20.58
2018-04-22T03:47:53.055Z,20.58
2018-04-22T03:48:25.095Z,20.61
2018-04-22T03:48:57.086Z,20.51
2018-04-22T03:49:29.147Z,20.6
2018-04-22T03:50:01.228Z,20.64
2018-04-22T03:50:33.261Z,20.58
2018-04-22T03:51:05.290Z,20.63
2018-04-22T03:51:37.419Z,20.6
2018-04-22T03:52:09.447Z,20.64
2018-04-22T03:52:41.490Z,20.57
2018-04-22T03:53:13.540Z,20.56
2018-04-22T03:53:45.586Z,20.57
2018-04-22T03:54:17.682Z,20.6
2018-04-22T03:54:49.726Z,20.48
2018-04-22T03:55:21.862Z,20.57
2018-04-22T03:55:53.874Z,20.48
2018-04-22T03:56:25.894Z,20.61
2018-04-22T03:56:57.920Z,20.6
2018-04-22T03:57:29.965Z,20.54
2018-04-22T03:58:02.031Z,20.6
2018-04-22T03:58:34.058Z,20.53
2018-04-22T03:59:06.116Z,20.42
2018-04-22T03:59:38.135Z,20.54
2018-04-22T04:00:10.141Z,20.53
2018-04-22T04:00:42.163Z,20.54
2018-04-22T04:01:14.203Z,20.6
2018-04-22T04:01:46.238Z,20.49
2018-04-22T04:02:18.243Z,20.49
2018-04-22T04:02:50.304Z,20.58
2018-04-22T04:03:22.335Z,20.53
2018-04-22T04:03:54.357Z,20.49
2018-04-22T04:04:26.452Z,20.6
2018-04-22T04:04:58.482Z,20.51
2018-04-22T04:05:30.481Z,20.54
2018-04-22T04:06:02.501Z,20.46
2018-04-22T04:06:34.610Z,20.54
2018-04-22T04:07:06.645Z,20.46
2018-04-22T04:07:38.682Z,20.42
2018-04-22T04:08:10.732Z,20.44
2018-04-22T04:08:42.747Z,20.48
2018-04-22T04:09:14.802Z,20.46
2018-04-22T04:09:46.822Z,20.48
2018-04-22T04:10:18.991Z,20.46
2018-04-22T04:10:51.100Z,20.42
2018-04-22T04:11:23.093Z,20.49
2018-04-22T04:11:55.104Z,20.48
2018-04-22T04:12:27.134Z,20.46
2018-04-22T04:12:59.292Z,20.56
2018-04-22T04:13:31.313Z,20.42
2018-04-22T04:14:03.385Z,20.53
2018-04-22T04:14:35.412Z,20.41
2018-04-22T04:15:07.443Z,20.4
2018-04-22T04:15:39.462Z,20.38
2018-04-22T04:16:11.509Z,20.4
2018-04-22T04:16:43.546Z,20.53
2018-04-22T04:17:15.557Z,20.41
2018-04-22T04:17:47.581Z,20.35
2018-04-22T04:18:19.643Z,20.46
2018-04-22T04:18:51.706Z,20.35
2018-04-22T04:19:23.817Z,20.41
2018-04-22T04:19:55.829Z,20.34
2018-04-22T04:20:27.875Z,20.38
2018-04-22T04:20:59.881Z,20.4
2018-04-22T04:21:32.699Z,20.38
2018-04-22T04:22:04.723Z,20.42
2018-04-22T04:22:36.721Z,20.46
2018-04-22T04:23:08.759Z,20.41
2018-04-22T04:23:40.787Z,20.41
2018-04-22T04:24:12.832Z,20.41
2018-04-22T04:24:44.861Z,20.34
2018-04-22T04:25:16.841Z,20.34
2018-04-22T04:25:48.882Z,20.48
2018-04-22T04:26:20.883Z,20.37
2018-04-22T04:26:52.920Z,20.35
2018-04-22T04:27:24.940Z,20.46
2018-04-22T04:27:56.973Z,20.41
2018-04-22T04:28:29.024Z,20.32
2018-04-22T04:29:01.070Z,20.42
2018-04-22T04:29:33.078Z,20.42
2018-04-22T04:30:05.100Z,20.38
2018-04-22T04:30:37.168Z,20.37
2018-04-22T04:31:09.192Z,20.42
2018-04-22T04:31:41.227Z,20.35
2018-04-22T04:32:13.278Z,20.37
2018-04-22T04:32:45.287Z,20.48
2018-04-22T04:33:17.297Z,20.44
2018-04-22T04:33:49.332Z,20.46
2018-04-22T04:34:21.504Z,20.37
2018-04-22T04:34:53.614Z,20.38
2018-04-22T04:35:25.639Z,20.38
2018-04-22T04:35:57.672Z,20.37
2018-04-22T04:36:29.833Z,20.4
2018-04-22T04:37:01.863Z,20.32
2018-04-22T04:37:33.893Z,20.34
2018-04-22T04:38:05.884Z,20.44
2018-04-22T04:38:37.917Z,20.4
2018-04-22T04:39:09.923Z,20.42
2018-04-22T04:39:41.972Z,20.38
2018-04-22T04:40:14.131Z,20.44
2018-04-22T04:40:46.176Z,20.3
2018-04-22T04:41:18.199Z,20.38
2018-04-22T04:41:50.237Z,20.34
2018-04-22T04:42:22.242Z,20.4
2018-04-22T04:42:54.264Z,20.38
2018-04-22T04:43:26.303Z,20.41
2018-04-22T04:43:58.484Z,20.46
2018-04-22T04:44:30.624Z,20.48
2018-04-22T04:45:02.653Z,20.42
2018-04-22T04:45:34.698Z,20.44
2018-04-22T04:46:06.724Z,20.42
2018-04-22T04:46:38.738Z,20.38
2018-04-22T04:47:10.770Z,20.44
2018-04-22T04:47:42.784Z,20.37
2018-04-22T04:48:14.801Z,20.32
2018-04-22T04:48:46.810Z,20.4
2018-04-22T04:49:18.849Z,20.37
2018-04-22T04:49:50.881Z,20.42
2018-04-22T04:50:22.923Z,20.34
2018-04-22T04:50:54.964Z,20.35
2018-04-22T04:51:26.978Z,20.42
2018-04-22T04:51:59.145Z,20.46
2018-04-22T04:52:31.192Z,20.34
2018-04-22T04:53:03.246Z,20.4
2018-04-22T04:53:35.277Z,20.42
2018-04-22T04:54:07.336Z,20.38
2018-04-22T04:54:39.342Z,20.41
2018-04-22T04:55:11.377Z,20.44
2018-04-22T04:55:43.435Z,20.4
2018-04-22T04:56:15.448Z,20.48
2018-04-22T04:56:47.426Z,20.34
2018-04-22T04:57:19.456Z,20.38
2018-04-22T04:57:51.480Z,20.38
2018-04-22T04:58:23.516Z,20.41
2018-04-22T04:58:55.587Z,20.51
2018-04-22T04:59:27.640Z,20.48
2018-04-22T04:59:59.691Z,20.53
2018-04-22T05:00:31.802Z,20.42
2018-04-22T05:01:03.848Z,20.46
2018-04-22T05:01:35.852Z,20.34
2018-04-22T05:02:07.894Z,20.41
2018-04-22T05:02:39.949Z,20.34
2018-04-22T05:03:11.977Z,20.37
2018-04-22T05:03:44.017Z,20.34
2018-04-22T05:04:16.028Z,20.37
2018-04-22T05:04:48.044Z,20.4
2018-04-22T05:05:20.054Z,20.38
2018-04-22T05:05:52.094Z,20.44
2018-04-22T05:06:24.124Z,20.4
2018-04-22T05:06:56.129Z,20.41
2018-04-22T05:07:28.132Z,20.41
2018-04-22T05:08:00.154Z,20.35
2018-04-22T05:08:32.185Z,20.37
2018-04-22T05:09:04.297Z,20.46
2018-04-22T05:09:36.445Z,20.38
2018-04-22T05:10:08.498Z,20.42
2018-04-22T05:10:40.601Z,20.44
2018-04-22T05:11:12.638Z,20.4
2018-04-22T05:11:44.656Z,20.44
2018-04-22T05:12:16.650Z,20.44
2018-04-22T05:12:48.689Z,20.53
2018-04-22T05:13:20.711Z,20.48
2018-04-22T05:13:52.768Z,20.48
2018-04-22T05:14:24.801Z,20.51
2018-04-22T05:14:56.824Z,20.41
2018-04-22T05:15:28.815Z,20.44
2018-04-22T05:16:00.807Z,20.51
2018-04-22T05:16:32.846Z,20.51
2018-04-22T05:17:04.913Z,20.54
2018-04-22T05:17:36.958Z,20.49
2018-04-22T05:18:08.934Z,20.42
2018-04-22T05:18:40.956Z,20.49
2018-04-22T05:19:13.010Z,20.48
2018-04-22T05:19:45.043Z,20.51
2018-04-22T05:20:17.127Z,20.51
2018-04-22T05:20:49.173Z,20.51
2018-04-22T05:21:21.195Z,20.57
2018-04-22T05:21:53.273Z,20.56
2018-04-22T05:22:25.260Z,20.54
2018-04-22T05:22:57.282Z,20.51
2018-04-22T05:23:29.318Z,20.58
2018-04-22T05:24:01.319Z,20.6
2018-04-22T05:24:33.356Z,20.56
2018-04-22T05:25:05.447Z,20.63
2018-04-22T05:25:38.308Z,20.57
2018-04-22T05:26:10.357Z,20.57
2018-04-22T05:26:42.407Z,20.54
2018-04-22T05:27:14.374Z,20.6
2018-04-22T05:27:46.408Z,20.57
2018-04-22T05:28:18.436Z,20.57
2018-04-22T05:28:50.446Z,20.6
2018-04-22T05:29:22.504Z,20.64
2018-04-22T05:29:54.562Z,20.54
2018-04-22T05:30:26.599Z,20.58
2018-04-22T05:30:58.640Z,20.57
2018-04-22T05:31:30.683Z,20.6
2018-04-22T05:32:02.829Z,20.58
2018-04-22T05:32:34.924Z,20.53
2018-04-22T05:33:06.946Z,20.57
2018-04-22T05:33:38.953Z,20.57
2018-04-22T05:34:11.005Z,20.63
2018-04-22T05:34:43.954Z,20.61
2018-04-22T05:35:15.934Z,20.66
2018-04-22T05:35:47.987Z,20.6
2018-04-22T05:36:19.967Z,20.68
2018-04-22T05:36:52.070Z,20.71
2018-04-22T05:37:24.156Z,20.71
2018-04-22T05:37:56.173Z,20.67
2018-04-22T05:38:28.216Z,20.71
2018-04-22T05:39:00.204Z,20.75
2018-04-22T05:39:32.234Z,20.75
2018-04-22T05:40:04.299Z,20.76
2018-04-22T05:40:36.409Z,20.72
2018-04-22T05:41:08.406Z,20.75
2018-04-22T05:41:40.392Z,20.72
2018-04-22T05:42:12.396Z,20.75
2018-04-22T05:42:44.546Z,20.68
2018-04-22T05:43:16.478Z,20.81
2018-04-22T05:43:48.558Z,20.78
2018-04-22T05:44:20.666Z,20.82
2018-04-22T05:44:52.682Z,20.76
2018-04-22T05:45:24.750Z,20.75
2018-04-22T05:45:56.795Z,20.86
2018-04-22T05:46:28.949Z,20.85
2018-04-22T05:47:01.004Z,20.82
2018-04-22T05:47:33.032Z,20.81
2018-04-22T05:48:05.073Z,20.81
2018-04-22T05:48:37.101Z,20.86
2018-04-22T05:49:09.256Z,20.91
2018-04-22T05:49:41.278Z,20.93
2018-04-22T05:50:13.302Z,20.93
2018-04-22T05:50:45.340Z,20.86
2018-04-22T05:51:17.324Z,20.9
2018-04-22T05:51:49.326Z,20.97
2018-04-22T05:52:21.383Z,21.06
2018-04-22T05:52:53.422Z,20.97
2018-04-22T05:53:25.436Z,20.98
2018-04-22T05:53:57.472Z,21.01
2018-04-22T05:54:29.511Z,21.08
2018-04-22T05:55:01.552Z,20.85
2018-04-22T05:55:33.595Z,21
2018-04-22T05:56:05.593Z,21.03
2018-04-22T05:56:37.596Z,21.01
2018-04-22T05:57:09.644Z,21.01
2018-04-22T05:57:41.618Z,21.03
2018-04-22T05:58:13.635Z,21.06
2018-04-22T05:58:45.674Z,21.03
2018-04-22T05:59:17.721Z,21.01
2018-04-22T05:59:49.773Z,21.06
2018-04-22T06:00:21.793Z,21.06
2018-04-22T06:00:53.848Z,21.13
2018-04-22T06:01:25.909Z,21.09
2018-04-22T06:01:57.963Z,21.15
2018-04-22T06:02:29.958Z,21.22
2018-04-22T06:03:02.005Z,21.18
2018-04-22T06:03:34.077Z,21.16
2018-04-22T06:04:06.102Z,21.23
2018-04-22T06:04:38.126Z,21.23
2018-04-22T06:05:10.183Z,21.21
2018-04-22T06:05:42.215Z,21.23
2018-04-22T06:06:14.218Z,21.28
2018-04-22T06:06:46.265Z,21.23
2018-04-22T06:07:18.282Z,21.22
2018-04-22T06:07:50.296Z,21.3
2018-04-22T06:08:22.311Z,21.31
2018-04-22T06:08:54.357Z,21.34
2018-04-22T06:09:26.377Z,21.34
2018-04-22T06:09:58.408Z,21.34
2018-04-22T06:10:30.446Z,21.34
2018-04-22T06:11:02.490Z,21.43
2018-04-22T06:11:34.517Z,21.36
2018-04-22T06:12:06.526Z,21.43
2018-04-22T06:12:38.537Z,21.43
2018-04-22T06:13:10.583Z,21.48
2018-04-22T06:13:42.620Z,21.45
2018-04-22T06:14:14.625Z,21.56
2018-04-22T06:14:46.639Z,21.56
2018-04-22T06:15:18.645Z,21.59
2018-04-22T06:15:50.702Z,21.59
2018-04-22T06:16:22.786Z,21.53
2018-04-22T06:16:54.817Z,21.64
2018-04-22T06:17:26.873Z,21.62
2018-04-22T06:17:58.879Z,21.59
2018-04-22T06:18:30.902Z,21.64
2018-04-22T06:19:02.919Z,21.61
2018-04-22T06:19:34.989Z,21.64
2018-04-22T06:20:07.032Z,21.61
2018-04-22T06:20:39.041Z,21.62
2018-04-22T06:21:11.101Z,21.68
2018-04-22T06:21:43.153Z,21.71
2018-04-22T06:22:15.179Z,21.74
2018-04-22T06:22:47.224Z,21.73
2018-04-22T06:23:19.404Z,21.68
2018-04-22T06:23:51.495Z,21.74
2018-04-22T06:24:23.540Z,21.77
2018-04-22T06:24:55.589Z,21.85
2018-04-22T06:25:27.687Z,21.8
2018-04-22T06:26:00.365Z,21.89
2018-04-22T06:26:32.356Z,21.83
2018-04-22T06:27:04.396Z,21.92
2018-04-22T06:27:36.407Z,21.94
2018-04-22T06:28:08.445Z,21.96
2018-04-22T06:28:40.445Z,21.94
2018-04-22T06:29:12.575Z,21.99
2018-04-22T06:29:44.632Z,21.99
2018-04-22T06:30:16.649Z,21.96
2018-04-22T06:30:48.679Z,22.04
2018-04-22T06:31:20.798Z,22.05
2018-04-22T06:31:52.796Z,22.09
2018-04-22T06:32:24.810Z,22.12
2018-04-22T06:32:56.837Z,22.08
2018-04-22T06:33:28.945Z,22.08
2018-04-22T06:34:00.945Z,22.15
2018-04-22T06:34:32.960Z,22.12
2018-04-22T06:35:05.552Z,22.18
2018-04-22T06:35:37.611Z,22.12
2018-04-22T06:36:09.643Z,22.12
2018-04-22T06:36:41.743Z,22.09
2018-04-22T06:37:13.791Z,22.11
2018-04-22T06:37:45.806Z,22.12
2018-04-22T06:38:17.862Z,22.26
2018-04-22T06:38:49.872Z,22.26
2018-04-22T06:39:21.910Z,22.3
2018-04-22T06:39:53.949Z,22.27
2018-04-22T06:40:26.112Z,22.22
2018-04-22T06:40:58.179Z,22.27
2018-04-22T06:41:30.224Z,22.24
2018-04-22T06:42:02.233Z,22.33
2018-04-22T06:42:34.228Z,22.38
2018-04-22T06:43:06.287Z,22.34
2018-04-22T06:43:38.272Z,22.36
2018-04-22T06:44:10.305Z,22.38
2018-04-22T06:44:42.369Z,22.41
2018-04-22T06:45:14.432Z,22.42
2018-04-22T06:45:47.186Z,22.42
2018-04-22T06:46:19.222Z,22.41
2018-04-22T06:46:51.231Z,22.45
2018-04-22T06:47:23.206Z,22.46
2018-04-22T06:47:55.236Z,22.48
2018-04-22T06:48:27.241Z,22.45
2018-04-22T06:49:00.018Z,22.45
2018-04-22T06:49:32.038Z,22.49
2018-04-22T06:50:04.037Z,22.55
2018-04-22T06:50:36.051Z,22.55
2018-04-22T06:51:08.092Z,22.59
2018-04-22T06:51:40.075Z,22.66
2018-04-22T06:52:12.241Z,22.6
2018-04-22T06:52:44.285Z,22.63
2018-04-22T06:53:16.349Z,22.64
2018-04-22T06:53:48.395Z,22.7
2018-04-22T06:54:20.431Z,22.75